aviador You're here:

K1S5 Decoded Metar

in
Report Time2017-06-27 04:55:00
UTC Time2017-06-27 05:14:06
Flight Rules vfr VFR
Wind220° at 04 kt
W.Rank220° ranks 11
Current wind is below 220° avg. (8.0)
Visibility9999 m
Phenomena:N/A
Clouds:N/A
Expected CloudBase > 3,600 ft AGL from Temp-Dew spread
CeilingNone
Temp22°C
Dew Point13°C (57% RH)
AAT21.5°C
QNH1008 hPa
Raw Report
METAR K1S5 270455Z AUTO 22004KT 10SM CLR 22/13 A2976 RMK AO2 T02230134=

Extra information for K1S5:More info

Social comments